Flight Track Log - Related Links

Times and Time Zones

All times are in EDT time to prevent confusion due to time zone crossing. See the CSZ9923 flight status page for this flight to view local times or setup timezone preferences in your user account.

Time Position Orientation Groundspeed Altitude Reporting Facility
EDT Latitude Longitude Course Direction KTS MPH feet Rate Location/Type
Wed 10:52:00 AM 23.0041 113.4033 314° West  Level Estimated
Wed 10:53:00 AM 23.0769 113.3212 314° West  Level Estimated
Wed 10:54:00 AM 23.1497 113.2390 314° West  Level Estimated
Wed 10:55:00 AM 23.2224 113.1567 314° West  Level Estimated
Wed 10:56:00 AM 23.2951 113.0744 314° West  Level Estimated
Wed 10:57:00 AM 23.3677 112.9919 314° West  Level Estimated
Wed 10:58:00 AM 23.4403 112.9094 314° West  Level Estimated
Wed 10:59:00 AM 23.5128 112.8267 314° West  Level Estimated
Wed 11:00:00 AM 23.5853 112.7440 314° West  Level Estimated
Wed 11:01:00 AM 23.6578 112.6612 314° West  Level Estimated
Wed 11:02:00 AM 23.7302 112.5783 314° West  Level Estimated
Wed 11:03:00 AM 23.8025 112.4953 314° West  Level Estimated
Wed 11:04:00 AM 23.8749 112.4122 314° West  Level Estimated
Wed 11:05:00 AM 23.9472 112.3290 314° West  Level Estimated
Wed 11:06:00 AM 24.0194 112.2457 314° West  Level Estimated
Wed 11:07:00 AM 24.0916 112.1624 313° West  Level Estimated
Wed 11:08:00 AM 24.1637 112.0789 313° West  Level Estimated
Wed 11:09:00 AM 24.2358 111.9954 313° West  Level Estimated
Wed 11:10:00 AM 24.3079 111.9117 313° West  Level Estimated
Wed 11:11:00 AM 24.3799 111.8279 313° West  Level Estimated
Wed 11:12:00 AM 24.4518 111.7441 313° West  Level Estimated
Wed 11:13:00 AM 24.5238 111.6602 313° West  Level Estimated
Wed 11:14:00 AM 24.5956 111.5761 313° West  Level Estimated
Wed 11:15:00 AM 24.6674 111.4920 313° West  Level Estimated
Wed 11:16:00 AM 24.7392 111.4078 313° West  Level Estimated
Wed 11:17:00 AM 24.8109 111.3234 313° West  Level Estimated
Wed 11:18:00 AM 24.8826 111.2390 313° West  Level Estimated
Wed 11:19:00 AM 24.9543 111.1545 313° West  Level Estimated
Wed 11:20:00 AM 25.0258 111.0699 313° West  Level Estimated
Wed 11:21:00 AM 25.0974 110.9852 313° West  Level Estimated
Wed 11:22:00 AM 25.1689 110.9003 313° West  Level Estimated
Wed 11:23:00 AM 25.2403 110.8154 313° West  Level Estimated
Wed 11:24:00 AM 25.3117 110.7304 313° West  Level Estimated
Wed 11:25:00 AM 25.3830 110.6453 313° West  Level Estimated
Wed 11:26:00 AM 25.4543 110.5601 313° West  Level Estimated
Wed 11:27:00 AM 25.5256 110.4747 313° West  Level Estimated
Wed 11:28:00 AM 25.5968 110.3893 313° West  Level Estimated
Wed 11:29:00 AM 25.6679 110.3038 313° West  Level Estimated
Wed 11:30:00 AM 25.7390 110.2182 313° West  Level Estimated
Wed 11:31:00 AM 25.8100 110.1324 313° West  Level Estimated
Wed 11:32:00 AM 25.8811 110.0466 313° West  Level Estimated
Wed 11:33:00 AM 25.9520 109.9607 313° West  Level Estimated
Wed 11:34:00 AM 26.0229 109.8746 313° West  Level Estimated
Wed 11:35:00 AM 26.0937 109.7885 312° West  Level Estimated
Wed 11:36:00 AM 26.1645 109.7023 312° West  Level Estimated
Wed 11:37:00 AM 26.2353 109.6159 312° West  Level Estimated
Wed 11:38:00 AM 26.3060 109.5294 312° West  Level Estimated
Wed 11:39:00 AM 26.3766 109.4429 312° West  Level Estimated
Wed 11:40:00 AM 26.4472 109.3562 312° West  Level Estimated
Wed 11:41:00 AM 26.5177 109.2694 312° West  Level Estimated
Wed 11:42:00 AM 26.5882 109.1826 312° West  Level Estimated
Wed 11:43:00 AM 26.6586 109.0956 312° West  Level Estimated
Wed 11:44:00 AM 26.7290 109.0085 312° West  Level Estimated
Wed 11:45:00 AM 26.7993 108.9213 312° West  Level Estimated
Wed 11:46:00 AM 26.8696 108.8340 312° West  Level Estimated
Wed 11:47:00 AM 26.9398 108.7466 312° West  Level Estimated
Wed 11:48:00 AM 27.0099 108.6590 312° West  Level Estimated
Wed 11:49:00 AM 27.0800 108.5714 312° West  Level Estimated
Wed 11:50:00 AM 27.1501 108.4837 312° West  Level Estimated
Wed 11:51:00 AM 27.2201 108.3958 312° West  Level Estimated
Wed 11:52:00 AM 27.2900 108.3078 312° West  Level Estimated
Wed 11:53:00 AM 27.3599 108.2198 312° West  Level Estimated
Wed 11:54:00 AM 27.4297 108.1316 312° West  Level Estimated
Wed 11:55:00 AM 27.4995 108.0433 312° West  Level Estimated
Wed 11:56:00 AM 27.5692 107.9549 312° West  Level Estimated
Wed 11:57:00 AM 27.6389 107.8663 312° West  Level Estimated
Wed 11:58:00 AM 27.7085 107.7777 312° West  Level Estimated
Wed 11:59:00 AM 27.7780 107.6889 312° West  Level Estimated
Wed 12:00:00 PM 27.8475 107.6001 312° West  Level Estimated
Wed 12:01:00 PM 27.9170 107.5111 311° West  Level Estimated
Wed 12:02:00 PM 27.9864 107.4220 311° West  Level Estimated
Wed 12:03:00 PM 28.0557 107.3328 311° West  Level Estimated
Wed 12:04:00 PM 28.1250 107.2435 311° West  Level Estimated
Wed 12:05:00 PM 28.1942 107.1540 311° West  Level Estimated
Wed 12:06:00 PM 28.2633 107.0645 311° West  Level Estimated
Wed 12:07:00 PM 28.3324 106.9748 311° West  Level Estimated
Wed 12:08:00 PM 28.4014 106.8850 311° West  Level Estimated
Wed 12:09:00 PM 28.4704 106.7951 311° West  Level Estimated
Wed 12:10:00 PM 28.5393 106.7051 311° West  Level Estimated
Wed 12:11:00 PM 28.6082 106.6150 311° West  Level Estimated
Wed 12:12:00 PM 28.6770 106.5247 311° West  Level Estimated
Wed 12:13:00 PM 28.7457 106.4343 311° West  Level Estimated
Wed 12:14:00 PM 28.8144 106.3438 311° West  Level Estimated
Wed 12:15:00 PM 28.8830 106.2532 311° West  Level Estimated
Wed 12:16:00 PM 28.9515 106.1625 311° West  Level Estimated
Wed 12:17:00 PM 29.0200 106.0716 311° West  Level Estimated
Wed 12:18:00 PM 29.0884 105.9807 311° West  Level Estimated
Wed 12:19:00 PM 29.1568 105.8896 311° West  Level Estimated
Wed 12:20:00 PM 29.2251 105.7984 311° West  Level Estimated
Wed 12:21:00 PM 29.2934 105.7070 311° West  Level Estimated
Wed 12:22:00 PM 29.3615 105.6156 311° West  Level Estimated
Wed 12:23:00 PM 29.4297 105.5240 311° West  Level Estimated
Wed 12:24:00 PM 29.4977 105.4323 310° West  Level Estimated
Wed 12:25:00 PM 29.5657 105.3404 310° West  Level Estimated
Wed 12:26:00 PM 29.6336 105.2485 310° West  Level Estimated
Wed 12:27:00 PM 29.7015 105.1564 310° West  Level Estimated
Wed 12:28:00 PM 29.7693 105.0642 310° West  Level Estimated
Wed 12:29:00 PM 29.8371 104.9719 310° West  Level Estimated
Wed 12:30:00 PM 29.9047 104.8794 310° West  Level Estimated
Wed 12:31:00 PM 29.9723 104.7869 310° West  Level Estimated
Wed 12:32:00 PM 30.0399 104.6942 310° West  Level Estimated
Wed 12:33:00 PM 30.1074 104.6013 310° West  Level Estimated
Wed 12:34:00 PM 30.1748 104.5084 310° West  Level Estimated
Wed 12:35:00 PM 30.2421 104.4153 310° West  Level Estimated
Wed 12:36:00 PM 30.3094 104.3221 310° West  Level Estimated
Wed 12:37:00 PM 30.3766 104.2288 310° West  Level Estimated
Wed 12:38:00 PM 30.4438 104.1353 310° West  Level Estimated
Wed 12:39:00 PM 30.5109 104.0417 310° West  Level Estimated
Wed 12:40:00 PM 30.5779 103.9480 310° West  Level Estimated
Wed 12:41:00 PM 30.5785 103.9471 310° West  Level Estimated
Wed 12:42:00 PM 30.5785 103.9471 North  Level Estimated
Wed 12:43:00 PM 30.5785 103.9471 North  Level Estimated
Wed 12:44:00 PM 30.5785 103.9471 North  Level Estimated
Wed 12:45:00 PM 30.5785 103.9471 North  Level Estimated
Wed 12:46:00 PM 30.5785 103.9471 North  Level Estimated
Wed 12:47:00 PM 30.5785 103.9471 North  Level Estimated
Wed 12:48:00 PM 30.5785 103.9471 North  Level Estimated
Wed 12:49:00 PM 30.5785 103.9471 North  Level Estimated
Wed 12:50:00 PM 30.5785 103.9471 North  Level Estimated
Wed 12:51:00 PM 30.5785 103.9471 North  Level Estimated
Wed 12:52:00 PM 30.5785 103.9471 North  Level Estimated
Wed 12:53:00 PM 30.5785 103.9471 North  Level Estimated
Wed 12:54:00 PM 30.5785 103.9471 North  Level Estimated
Wed 12:55:00 PM 30.5785 103.9471 North  Level Estimated
Wed 12:56:00 PM 30.5785 103.9471 North  Level Estimated

Login

Don't have an account? Register now (free) for customized features, flight alerts, and more!